Time;durP1;ratioP1;P1;durP2;ratioP2;P2;SDS_P1;SDS_P2;PMS_P1;PMS_P2;Temp;Humidity;BMP_temperature;BMP_pressure;BME280_temperature;BME280_humidity;BME280_pressure;Samples;Min_cycle;Max_cycle;Signal;HPM_P1;HPM_P2
2023/10/18 00:00:53;;;;;;;;;;;;;;;-140.72;100.00;59137.31;5074417;28;19920;-70
2023/10/18 00:03:19;;;;;;;;;;;;;;;-140.72;100.00;59125.13;5073104;28;19938;-70
2023/10/18 00:05:45;;;;;;;;;;;;;;;-140.72;100.00;59133.25;5079752;28;19920;-70
2023/10/18 00:08:11;;;;;;;;;;;;;;;-140.72;100.00;59121.06;5063509;28;20015;-70
2023/10/18 00:10:36;;;;;;;;;;;;;;;-140.72;100.00;59112.94;5063378;28;20022;-70
2023/10/18 00:13:01;;;;;;;;;;;;;;;-140.72;100.00;59123.09;5070626;28;19924;-70
2023/10/18 00:15:26;;;;;;;;;;;;;;;-140.72;100.00;59141.38;5067138;28;19921;-70
2023/10/18 00:17:52;;;;;;;;;;;;;;;-140.72;100.00;59141.38;5073235;28;20359;-70
2023/10/18 00:20:21;;;;;;;;;;;;;;;-140.72;100.00;59102.78;5071878;28;20023;-70
2023/10/18 00:22:46;;;;;;;;;;;;;;;-140.72;100.00;59080.41;5066980;28;19921;-70
2023/10/18 00:25:12;;;;;;;;;;;;;;;-140.72;100.00;59104.81;5072406;28;19957;-70
2023/10/18 00:27:46;;;;;;;;;;;;;;;-140.72;100.00;59129.19;5084420;28;20007;-70
2023/10/18 00:30:12;;;;;;;;;;;;;;;-140.72;100.00;59112.94;5067786;28;19973;-70
2023/10/18 00:32:38;;;;;;;;;;;;;;;-140.72;100.00;59104.81;5074323;28;19939;-70
2023/10/18 00:35:12;;;;;;;;;;;;;;;-140.72;100.00;59068.22;5072291;28;19960;-70
2023/10/18 00:37:38;;;;;;;;;;;;;;;-140.72;100.00;59062.13;5074629;28;19948;-70
2023/10/18 00:43:03;;;;;;;;;;;;;;;-140.72;100.00;59092.59;5076843;28;19959;-70
2023/10/18 00:45:39;;;;;;;;;;;;;;;-140.72;100.00;59066.19;5074683;28;19927;-70
2023/10/18 00:48:06;;;;;;;;;;;;;;;-140.72;100.00;59039.75;5072827;28;19920;-70
2023/10/18 00:50:33;;;;;;;;;;;;;;;-140.72;100.00;59015.38;5087759;28;19909;-70
2023/10/18 00:53:01;;;;;;;;;;;;;;;-140.72;100.00;59033.66;5092952;28;19924;-70
2023/10/18 00:55:26;;;;;;;;;;;;;;;-140.72;100.00;59043.81;5073668;28;20049;-70
2023/10/18 00:57:51;;;;;;;;;;;;;;;-140.72;100.00;59108.88;5075635;28;20403;-70
2023/10/18 01:00:24;;;;;;;;;;;;;;;-140.72;100.00;59013.34;5071565;28;19927;-70
2023/10/18 01:02:52;;;;;;;;;;;;;;;-140.72;100.00;59021.47;5072149;28;20393;-71
2023/10/18 01:05:18;;;;;;;;;;;;;;;-140.72;100.00;59021.47;5074607;28;20086;-70
2023/10/18 01:07:46;;;;;;;;;;;;;;;-140.72;100.00;59021.47;5067585;28;20331;-70
2023/10/18 01:10:12;;;;;;;;;;;;;;;-140.72;100.00;59023.50;5072785;28;19920;-70
2023/10/18 01:12:38;;;;;;;;;;;;;;;-140.72;100.00;59045.84;5083177;28;20267;-69
2023/10/18 01:15:07;;;;;;;;;;;;;;;-140.72;100.00;59027.56;5073502;28;19920;-70
2023/10/18 01:17:43;;;;;;;;;;;;;;;-140.72;100.00;59015.38;5068754;28;20426;-69
2023/10/18 01:23:07;;;;;;;;;;;;;;;-140.72;100.00;58993.00;5064664;28;20388;-70
2023/10/18 01:25:33;;;;;;;;;;;;;;;-140.72;100.00;59021.47;5087045;28;19943;-70
2023/10/18 01:27:59;;;;;;;;;;;;;;;-140.72;100.00;59041.78;5086704;28;19917;-70
2023/10/18 01:30:24;;;;;;;;;;;;;;;-140.72;100.00;59027.56;5070861;28;19999;-70
2023/10/18 01:32:51;;;;;;;;;;;;;;;-140.72;100.00;59025.53;5065879;28;20083;-70
2023/10/18 01:35:16;;;;;;;;;;;;;;;-140.72;100.00;59007.25;5071221;28;20040;-70
2023/10/18 01:37:43;;;;;;;;;;;;;;;-140.72;100.00;59019.44;5072245;28;21296;-70
2023/10/18 01:40:21;;;;;;;;;;;;;;;-140.72;100.00;58962.53;5072111;28;19920;-70
2023/10/18 01:42:55;;;;;;;;;;;;;;;-140.72;100.00;59017.41;5072420;28;19927;-70
2023/10/18 01:45:22;;;;;;;;;;;;;;;-140.72;100.00;58995.03;5072919;28;19999;-70
2023/10/18 01:47:51;;;;;;;;;;;;;;;-140.72;100.00;58919.84;5072038;28;20011;-70
2023/10/18 01:50:18;;;;;;;;;;;;;;;-140.72;100.00;58986.91;5071798;28;20004;-70
2023/10/18 01:52:44;;;;;;;;;;;;;;;-140.72;100.00;58982.84;5082877;28;19924;-69
2023/10/18 01:55:12;;;;;;;;;;;;;;;-140.72;100.00;58970.66;5063998;28;19920;-70
2023/10/18 01:57:37;;;;;;;;;;;;;;;-140.72;100.00;58944.22;5069983;28;20007;-70
2023/10/18 02:00:03;;;;;;;;;;;;;;;-140.72;100.00;58938.13;5066425;28;19935;-70
2023/10/18 02:02:31;;;;;;;;;;;;;;;-140.72;100.00;58917.81;5071426;28;19943;-70
2023/10/18 02:04:57;;;;;;;;;;;;;;;-140.72;100.00;58869.03;5064365;28;19990;-70
2023/10/18 02:07:22;;;;;;;;;;;;;;;-140.72;100.00;58909.69;5063683;28;20266;-70
2023/10/18 02:09:48;;;;;;;;;;;;;;;-140.72;100.00;58871.06;5067259;28;20396;-70
2023/10/18 02:12:18;;;;;;;;;;;;;;;-140.72;100.00;58883.25;5070959;28;19920;-70
2023/10/18 02:14:44;;;;;;;;;;;;;;;-140.72;100.00;58860.91;5063114;28;20007;-70
2023/10/18 02:17:10;;;;;;;;;;;;;;;-140.72;100.00;58852.78;5079240;28;19995;-70
2023/10/18 02:19:36;;;;;;;;;;;;;;;-140.72;100.00;58864.97;5068401;28;20373;-69
2023/10/18 02:22:02;;;;;;;;;;;;;;;-140.72;100.00;58842.63;5071017;28;19921;-70
2023/10/18 02:24:27;;;;;;;;;;;;;;;-140.72;100.00;58846.69;5071513;28;19921;-70
2023/10/18 02:26:56;;;;;;;;;;;;;;;-140.72;100.00;58822.28;5071447;28;20007;-70
2023/10/18 02:29:22;;;;;;;;;;;;;;;-140.72;100.00;58816.19;5064109;28;19977;-70
2023/10/18 02:31:47;;;;;;;;;;;;;;;-140.72;100.00;58767.41;5072660;28;19921;-69
2023/10/18 02:34:14;;;;;;;;;;;;;;;-140.72;100.00;58753.19;5072601;28;20333;-70
2023/10/18 02:36:40;;;;;;;;;;;;;;;-140.72;100.00;58779.59;5073697;28;19921;-70
2023/10/18 02:39:06;;;;;;;;;;;;;;;-140.72;100.00;58738.97;5087907;28;19924;-70
2023/10/18 02:41:34;;;;;;;;;;;;;;;-140.72;100.00;58714.56;5073603;28;19924;-70
2023/10/18 02:43:59;;;;;;;;;;;;;;;-140.72;100.00;58724.72;5072268;28;19924;-70
2023/10/18 02:46:26;;;;;;;;;;;;;;;-140.72;100.00;58718.63;5075096;28;20342;-71
2023/10/18 02:48:52;;;;;;;;;;;;;;;-140.72;100.00;58686.13;5081237;28;19928;-70
2023/10/18 02:51:28;;;;;;;;;;;;;;;-140.72;100.00;58714.56;5069783;28;20274;-70
2023/10/18 02:54:18;;;;;;;;;;;;;;;-140.72;100.00;58669.84;5069665;28;20440;-70
2023/10/18 02:56:51;;;;;;;;;;;;;;;-140.72;100.00;58680.03;5070949;28;20001;-70
2023/10/18 02:59:21;;;;;;;;;;;;;;;-140.72;100.00;58631.25;5085977;28;19935;-70
2023/10/18 03:01:48;;;;;;;;;;;;;;;-140.72;100.00;58633.28;5072230;28;19928;-70
2023/10/18 03:04:22;;;;;;;;;;;;;;;-140.72;100.00;58594.66;5074867;28;19974;-70
2023/10/18 03:06:50;;;;;;;;;;;;;;;-140.72;100.00;58594.66;5071596;28;20406;-70
2023/10/18 03:09:26;;;;;;;;;;;;;;;-140.72;100.00;58560.13;5074957;28;20243;-70
2023/10/18 03:11:55;;;;;;;;;;;;;;;-140.72;100.00;58574.34;5087716;28;20074;-70
2023/10/18 03:14:23;;;;;;;;;;;;;;;-140.72;100.00;58545.88;5074184;28;19927;-70
2023/10/18 03:16:48;;;;;;;;;;;;;;;-140.72;100.00;58533.69;5073744;28;20318;-70
2023/10/18 03:19:13;;;;;;;;;;;;;;;-140.72;100.00;58531.66;5068854;28;19921;-70
2023/10/18 03:21:41;;;;;;;;;;;;;;;-140.72;100.00;58517.44;5069296;28;19920;-70
2023/10/18 03:24:07;;;;;;;;;;;;;;;-140.72;100.00;58436.16;5069940;28;19924;-70
2023/10/18 03:26:35;;;;;;;;;;;;;;;-140.72;100.00;58480.84;5068873;28;19973;-70
2023/10/18 03:29:12;;;;;;;;;;;;;;;-140.72;100.00;58446.31;5074656;28;19916;-70
2023/10/18 03:31:43;;;;;;;;;;;;;;;-140.72;100.00;58432.09;5063807;28;20030;-70
2023/10/18 03:34:09;;;;;;;;;;;;;;;-140.72;100.00;58448.34;5076780;28;19916;-70
2023/10/18 03:36:48;;;;;;;;;;;;;;;-140.72;100.00;58452.41;5070797;28;20370;-70
2023/10/18 03:39:15;;;;;;;;;;;;;;;-140.72;100.00;58411.75;5076012;28;19920;-70
2023/10/18 03:41:41;;;;;;;;;;;;;;;-140.72;100.00;58401.59;5074149;28;19991;-70
2023/10/18 03:44:09;;;;;;;;;;;;;;;-140.72;100.00;58393.47;5073518;28;20425;-70
2023/10/18 03:49:16;;;;;;;;;;;;;;;-140.72;100.00;58344.69;5071322;28;20375;-70
2023/10/18 03:51:42;;;;;;;;;;;;;;;-140.72;100.00;58389.41;5077732;28;19981;-70
2023/10/18 03:54:13;;;;;;;;;;;;;;;-140.72;100.00;58328.44;5078897;28;20342;-70
2023/10/18 03:56:39;;;;;;;;;;;;;;;-140.72;100.00;58291.88;5070918;28;20011;-70
2023/10/18 03:59:24;;;;;;;;;;;;;;;-140.72;100.00;58330.47;5082320;28;19922;-70
2023/10/18 04:02:15;;;;;;;;;;;;;;;-140.72;100.00;58259.34;5071037;28;19920;-70
2023/10/18 04:04:44;;;;;;;;;;;;;;;-140.72;100.00;58271.53;5068708;28;19928;-70
2023/10/18 04:07:13;;;;;;;;;;;;;;;-140.72;100.00;58261.38;5074696;28;19920;-70
2023/10/18 04:09:53;;;;;;;;;;;;;;;-140.72;100.00;58267.47;5067489;28;19936;-70
2023/10/18 04:12:22;;;;;;;;;;;;;;;-140.72;100.00;58200.41;5074510;28;20274;-70
2023/10/18 04:14:52;;;;;;;;;;;;;;;-140.72;100.00;58220.75;5071027;28;19920;-70
2023/10/18 04:17:20;;;;;;;;;;;;;;;-140.72;100.00;58186.19;5070201;28;19931;-70
2023/10/18 04:19:47;;;;;;;;;;;;;;;-140.72;100.00;58202.44;5079296;28;20282;-70
2023/10/18 04:22:13;;;;;;;;;;;;;;;-140.72;100.00;58176.03;5078056;28;19908;-70
2023/10/18 04:24:39;;;;;;;;;;;;;;;-140.72;100.00;58149.63;5084031;28;19930;-70
2023/10/18 04:27:04;;;;;;;;;;;;;;;-140.72;100.00;58108.97;5074635;28;19921;-70
2023/10/18 04:29:33;;;;;;;;;;;;;;;-140.72;100.00;58139.47;5065981;28;19928;-71
2023/10/18 04:31:58;;;;;;;;;;;;;;;-140.72;100.00;58088.66;5076530;28;19921;-70
2023/10/18 04:34:24;;;;;;;;;;;;;;;-140.72;100.00;58098.81;5073228;28;19935;-70
2023/10/18 04:36:51;;;;;;;;;;;;;;;-140.72;100.00;58043.94;5073590;28;19920;-70
2023/10/18 04:39:18;;;;;;;;;;;;;;;-140.72;100.00;58076.47;5072220;28;20279;-70
2023/10/18 04:41:44;;;;;;;;;;;;;;;-140.72;100.00;58056.16;5077109;28;19959;-70
2023/10/18 04:44:23;;;;;;;;;;;;;;;-140.72;100.00;58074.44;5072920;28;19916;-70
2023/10/18 04:46:52;;;;;;;;;;;;;;;-140.72;100.00;58025.66;5068106;28;19999;-70
2023/10/18 04:49:23;;;;;;;;;;;;;;;-140.72;100.00;58076.47;5064253;28;20336;-71
2023/10/18 04:51:48;;;;;;;;;;;;;;;-140.72;100.00;58005.34;5070706;28;19977;-70
2023/10/18 04:54:18;;;;;;;;;;;;;;;-140.72;100.00;57980.97;5071874;28;19916;-71
2023/10/18 04:56:47;;;;;;;;;;;;;;;-140.72;100.00;58003.31;5072887;28;19927;-70
2023/10/18 05:04:19;;;;;;;;;;;;;;;-140.72;100.00;57968.78;5072688;28;20308;-70
2023/10/18 05:06:45;;;;;;;;;;;;;;;-140.72;100.00;57964.69;5071101;28;20008;-71
2023/10/18 05:09:12;;;;;;;;;;;;;;;-140.72;100.00;57946.41;5072369;28;19982;-71
2023/10/18 05:11:47;;;;;;;;;;;;;;;-140.72;100.00;57958.59;5066038;28;21133;-70
2023/10/18 05:14:19;;;;;;;;;;;;;;;-140.72;100.00;57911.88;5065840;28;19921;-70
2023/10/18 05:16:45;;;;;;;;;;;;;;;-140.72;100.00;57875.28;5073940;28;19916;-69
2023/10/18 05:19:28;;;;;;;;;;;;;;;-140.72;100.00;57865.13;5072064;28;19921;-70
2023/10/18 05:21:53;;;;;;;;;;;;;;;-140.72;100.00;57861.06;5066575;28;19924;-70
2023/10/18 05:24:21;;;;;;;;;;;;;;;-140.72;100.00;57828.56;5065834;28;19920;-70
2023/10/18 05:26:53;;;;;;;;;;;;;;;-140.72;100.00;57877.34;5065402;28;19920;-70
2023/10/18 05:29:19;;;;;;;;;;;;;;;-140.72;100.00;57834.66;5069359;28;19989;-70
2023/10/18 05:32:06;;;;;;;;;;;;;;;-140.72;100.00;57779.81;5081953;28;19921;-70
2023/10/18 05:34:48;;;;;;;;;;;;;;;-140.72;100.00;57798.09;5071899;28;19920;-70
2023/10/18 05:37:14;;;;;;;;;;;;;;;-140.72;100.00;57794.03;5070501;28;19916;-70
2023/10/18 05:42:27;;;;;;;;;;;;;;;-140.72;100.00;57710.72;5069894;28;19928;-72
2023/10/18 05:44:53;;;;;;;;;;;;;;;-140.72;100.00;57702.59;5071488;28;20286;-71
2023/10/18 05:47:18;;;;;;;;;;;;;;;-140.72;100.00;57720.88;5070108;28;19928;-71
2023/10/18 05:49:43;;;;;;;;;;;;;;;-140.72;100.00;57684.31;5071520;28;20355;-71
2023/10/18 05:54:36;;;;;;;;;;;;;;;-140.72;100.00;57645.69;5064332;28;19924;-71
2023/10/18 05:57:02;;;;;;;;;;;;;;;-140.72;100.00;57637.56;5070804;28;20272;-71
2023/10/18 05:59:33;;;;;;;;;;;;;;;-140.72;100.00;57611.16;5069891;28;19925;-71
2023/10/18 06:02:10;;;;;;;;;;;;;;;-140.72;100.00;57615.22;5067620;28;20272;-71
2023/10/18 06:04:38;;;;;;;;;;;;;;;-140.72;100.00;57592.88;5070782;28;20308;-71
2023/10/18 06:07:10;;;;;;;;;;;;;;;-140.72;100.00;57576.63;5062128;28;20244;-72
2023/10/18 06:12:23;;;;;;;;;;;;;;;-140.72;100.00;57570.53;5073346;28;20023;-71
2023/10/18 06:14:52;;;;;;;;;;;;;;;-140.72;100.00;57548.16;5069152;28;19920;-71
2023/10/18 06:17:22;;;;;;;;;;;;;;;-140.72;100.00;57513.63;5072067;28;19920;-71
2023/10/18 06:19:50;;;;;;;;;;;;;;;-140.72;100.00;57533.94;5076352;28;19917;-71
2023/10/18 06:22:39;;;;;;;;;;;;;;;-140.72;100.00;57519.72;5079019;28;19920;-71
2023/10/18 06:25:06;;;;;;;;;;;;;;;-140.72;100.00;57515.66;5074160;28;20371;-72
2023/10/18 06:27:39;;;;;;;;;;;;;;;-140.72;100.00;57523.78;5074654;28;19921;-70
2023/10/18 06:30:05;;;;;;;;;;;;;;;-140.72;100.00;57454.72;5071042;28;20388;-69
2023/10/18 06:32:33;;;;;;;;;;;;;;;-140.72;100.00;57452.69;5068980;28;19932;-69
2023/10/18 06:34:58;;;;;;;;;;;;;;;-140.72;100.00;57432.38;5076047;28;19955;-69
2023/10/18 06:37:24;;;;;;;;;;;;;;;-140.72;100.00;57438.47;5075429;28;19916;-69
2023/10/18 06:39:58;;;;;;;;;;;;;;;-140.72;100.00;57424.25;5075445;28;19916;-69
2023/10/18 06:42:26;;;;;;;;;;;;;;;-140.72;100.00;57383.59;5072111;28;20058;-69
2023/10/18 06:44:52;;;;;;;;;;;;;;;-140.72;100.00;57393.75;5083120;28;20338;-69
2023/10/18 06:47:18;;;;;;;;;;;;;;;-140.72;100.00;57349.06;5079864;28;19932;-69
2023/10/18 06:49:43;;;;;;;;;;;;;;;-140.72;100.00;57275.94;5072507;28;19927;-69
2023/10/18 06:52:09;;;;;;;;;;;;;;;-140.72;100.00;57267.81;5064971;28;20023;-69
2023/10/18 06:54:38;;;;;;;;;;;;;;;-140.72;100.00;57259.66;5073408;28;19958;-69
2023/10/18 06:57:18;;;;;;;;;;;;;;;-140.72;100.00;57198.72;5073074;28;19917;-70
2023/10/18 06:59:46;;;;;;;;;;;;;;;-140.72;100.00;57158.09;5067281;28;20308;-69
2023/10/18 07:02:12;;;;;;;;;;;;;;;-140.72;100.00;57103.25;5078439;28;19985;-69
2023/10/18 07:04:38;;;;;;;;;;;;;;;-140.72;100.00;57038.22;5080854;28;19917;-69
2023/10/18 07:07:13;;;;;;;;;;;;;;;-140.72;100.00;57028.06;5074478;28;20212;-69
2023/10/18 07:09:38;;;;;;;;;;;;;;;-140.72;100.00;56983.38;5079539;28;19920;-68
2023/10/18 07:12:03;;;;;;;;;;;;;;;-140.72;100.00;56946.81;5071219;28;20014;-68
2023/10/18 07:14:32;;;;;;;;;;;;;;;-140.72;100.00;56926.50;5074133;28;19966;-68
2023/10/18 07:17:04;;;;;;;;;;;;;;;-140.72;100.00;56822.91;5074914;28;19928;-70
2023/10/18 07:19:29;;;;;;;;;;;;;;;-140.72;100.00;56792.44;5073180;28;20023;-68
2023/10/18 07:21:55;;;;;;;;;;;;;;;-140.72;100.00;56761.97;5065949;28;20409;-69
2023/10/18 07:24:21;;;;;;;;;;;;;;;-140.72;100.00;56707.13;5067192;28;19927;-69
2023/10/18 07:26:46;;;;;;;;;;;;;;;-140.72;100.00;56642.09;5075206;28;19924;-69
2023/10/18 07:29:13;;;;;;;;;;;;;;;-140.72;100.00;56611.63;5062542;28;19974;-69
2023/10/18 07:31:39;;;;;;;;;;;;;;;-140.72;100.00;56568.97;5073465;28;20335;-69
2023/10/18 07:34:17;;;;;;;;;;;;;;;-140.72;100.00;56516.16;5073361;28;19927;-69
2023/10/18 07:36:44;;;;;;;;;;;;;;;-140.72;100.00;56491.78;5073958;28;20275;-71
2023/10/18 07:39:11;;;;;;;;;;;;;;;-140.72;100.00;56479.59;5072783;28;19966;-71
2023/10/18 07:41:36;;;;;;;;;;;;;;;-140.72;100.00;56467.44;5069838;28;19971;-71
2023/10/18 07:44:05;;;;;;;;;;;;;;;-140.72;100.00;56447.13;5067874;28;20355;-71
2023/10/18 07:46:34;;;;;;;;;;;;;;;-140.72;100.00;56432.91;5075165;28;20344;-70
2023/10/18 07:49:04;;;;;;;;;;;;;;;-140.72;100.00;56365.88;5068496;28;20454;-71
2023/10/18 07:51:31;;;;;;;;;;;;;;;-140.72;100.00;56378.06;5069855;28;20003;-71
2023/10/18 07:53:57;;;;;;;;;;;;;;;-140.72;100.00;56294.78;5087501;28;19916;-71
2023/10/18 07:56:31;;;;;;;;;;;;;;;-140.72;100.00;56272.44;5087215;28;20369;-71
2023/10/18 08:01:47;;;;;;;;;;;;;;;-140.72;100.00;56187.13;5061635;28;20378;-71
2023/10/18 08:04:20;;;;;;;;;;;;;;;-140.72;100.00;56118.06;5072509;28;20011;-70
2023/10/18 08:06:45;;;;;;;;;;;;;;;-140.72;100.00;56136.34;5079970;28;20050;-71
2023/10/18 08:09:12;;;;;;;;;;;;;;;-140.72;100.00;56065.25;5072007;28;19948;-71
2023/10/18 08:11:37;;;;;;;;;;;;;;;-140.72;100.00;56069.31;5081042;28;20404;-71
2023/10/18 08:14:16;;;;;;;;;;;;;;;-140.72;100.00;56026.69;5077878;28;20012;-71
2023/10/18 08:16:44;;;;;;;;;;;;;;;-140.72;100.00;55996.22;5075039;28;19992;-71
2023/10/18 08:19:10;;;;;;;;;;;;;;;-140.72;100.00;55971.84;5071026;28;20363;-71
2023/10/18 08:21:38;;;;;;;;;;;;;;;-140.72;100.00;55977.94;5072148;28;19986;-74
2023/10/18 08:24:20;;;;;;;;;;;;;;;-140.72;100.00;55902.78;5075067;28;20290;-71
2023/10/18 08:26:48;;;;;;;;;;;;;;;-140.72;100.00;55866.22;5060687;28;19916;-71
2023/10/18 08:29:14;;;;;;;;;;;;;;;-140.72;100.00;55817.50;5068157;28;19921;-75
2023/10/18 08:31:39;;;;;;;;;;;;;;;-140.72;100.00;55742.34;5072104;28;19939;-71
2023/10/18 08:34:15;;;;;;;;;;;;;;;-140.72;100.00;55707.81;5064505;28;19983;-71
2023/10/18 08:36:40;;;;;;;;;;;;;;;-140.72;100.00;55691.56;5075377;28;19931;-71
2023/10/18 08:39:06;;;;;;;;;;;;;;;-140.72;100.00;55614.41;5072631;28;19920;-71
2023/10/18 08:41:32;;;;;;;;;;;;;;;-140.72;100.00;55581.91;5071124;28;19928;-71
2023/10/18 08:44:26;;;;;;;;;;;;;;;-140.72;100.00;55545.38;5065743;28;19948;-71
2023/10/18 08:49:34;;;;;;;;;;;;;;;-140.72;100.00;55460.06;5062718;28;19925;-71
2023/10/18 08:52:08;;;;;;;;;;;;;;;-140.72;100.00;55482.41;5071293;28;20267;-71
2023/10/18 08:54:34;;;;;;;;;;;;;;;-140.72;100.00;55423.53;5068168;28;19991;-71
2023/10/18 08:57:06;;;;;;;;;;;;;;;-140.72;100.00;55358.53;5068137;28;19982;-71
2023/10/18 08:59:37;;;;;;;;;;;;;;;-140.72;100.00;55334.16;5071764;28;19921;-71
2023/10/18 09:02:21;;;;;;;;;;;;;;;-140.72;100.00;55283.41;5066612;28;19916;-71
2023/10/18 09:04:54;;;;;;;;;;;;;;;-140.72;100.00;55254.97;5066882;28;19924;-71
2023/10/18 09:07:24;;;;;;;;;;;;;;;-140.72;100.00;55232.66;5069022;28;19924;-71
2023/10/18 09:09:55;;;;;;;;;;;;;;;-140.72;100.00;55163.59;5068390;28;20338;-71
2023/10/18 09:12:35;;;;;;;;;;;;;;;-140.72;100.00;55196.09;5069568;28;19920;-71
2023/10/18 09:15:26;;;;;;;;;;;;;;;-140.72;100.00;55179.84;5072133;28;19920;-71
2023/10/18 09:17:46;;;;;;;;;;;;;;;-140.72;100.00;55112.84;5072286;28;19935;-71
2023/10/18 09:20:15;;;;;;;;;;;;;;;-140.72;100.00;55088.47;5072168;28;20074;-71
2023/10/18 09:22:45;;;;;;;;;;;;;;;-140.72;100.00;55056.00;5073633;28;20045;-71
2023/10/18 09:25:11;;;;;;;;;;;;;;;-140.72;100.00;55043.81;5065497;28;19927;-71
2023/10/18 09:27:36;;;;;;;;;;;;;;;-140.72;100.00;55070.19;5071781;28;19916;-71
2023/10/18 09:30:04;;;;;;;;;;;;;;;-140.72;100.00;55009.28;5070901;28;19927;-71
2023/10/18 09:32:32;;;;;;;;;;;;;;;-140.72;100.00;54976.81;5074549;28;20342;-71
2023/10/18 09:35:09;;;;;;;;;;;;;;;-140.72;100.00;55007.25;5071747;28;19931;-71
2023/10/18 09:37:38;;;;;;;;;;;;;;;-140.72;100.00;54974.78;5075747;28;20054;-71
2023/10/18 09:40:04;;;;;;;;;;;;;;;-140.72;100.00;54934.16;5093941;28;19920;-72
2023/10/18 09:42:29;;;;;;;;;;;;;;;-140.72;100.00;54887.47;5072128;28;19927;-71
2023/10/18 09:44:55;;;;;;;;;;;;;;;-140.72;100.00;54820.47;5078970;28;20063;-71
2023/10/18 09:47:23;;;;;;;;;;;;;;;-140.72;100.00;54783.91;5070530;28;20000;-71
2023/10/18 09:49:49;;;;;;;;;;;;;;;-140.72;100.00;54830.59;5064132;28;20015;-71
2023/10/18 09:52:15;;;;;;;;;;;;;;;-140.72;100.00;54743.31;5067757;28;19921;-71
2023/10/18 09:54:47;;;;;;;;;;;;;;;-140.72;100.00;54723.00;5070459;28;19921;-71
2023/10/18 09:57:18;;;;;;;;;;;;;;;-140.72;100.00;54670.22;5071967;28;20416;-71
2023/10/18 09:59:47;;;;;;;;;;;;;;;-140.72;100.00;54623.53;5072435;28;19932;-71
2023/10/18 10:02:15;;;;;;;;;;;;;;;-140.72;100.00;54574.78;5068728;28;19921;-71
2023/10/18 10:04:42;;;;;;;;;;;;;;;-140.72;100.00;54597.13;5065583;28;19920;-71
2023/10/18 10:09:59;;;;;;;;;;;;;;;-140.72;100.00;54586.97;5071401;28;20085;-72
2023/10/18 10:12:28;;;;;;;;;;;;;;;-140.72;100.00;54530.13;5070796;28;19974;-72
2023/10/18 10:14:53;;;;;;;;;;;;;;;-140.72;100.00;54485.47;5072061;28;19916;-75
2023/10/18 10:17:20;;;;;;;;;;;;;;;-140.72;100.00;54493.59;5069680;28;20409;-70
2023/10/18 10:19:50;;;;;;;;;;;;;;;-140.72;100.00;54434.72;5071521;28;20371;-70
2023/10/18 10:22:17;;;;;;;;;;;;;;;-140.72;100.00;54430.66;5078841;28;19924;-70
2023/10/18 10:24:43;;;;;;;;;;;;;;;-140.72;100.00;54373.81;5079899;28;20287;-73
2023/10/18 10:30:25;;;;;;;;;;;;;;;-140.72;100.00;54404.25;5060336;28;19956;-70
2023/10/18 10:32:54;;;;;;;;;;;;;;;-140.72;100.00;54383.94;5072340;28;19932;-70
2023/10/18 10:35:24;;;;;;;;;;;;;;;-140.72;100.00;54361.63;5071301;28;20371;-70
2023/10/18 10:37:50;;;;;;;;;;;;;;;-140.72;100.00;54365.69;5071720;28;19924;-70
2023/10/18 10:40:19;;;;;;;;;;;;;;;-140.72;100.00;54351.47;5070696;28;20048;-70
2023/10/18 10:42:48;;;;;;;;;;;;;;;-140.72;100.00;54353.50;5071788;28;19928;-70
2023/10/18 10:50:43;;;;;;;;;;;;;;;-140.72;100.00;54241.84;5064814;28;19955;-70
2023/10/18 10:53:11;;;;;;;;;;;;;;;-140.72;100.00;54254.03;5071316;28;20329;-70
2023/10/18 10:55:38;;;;;;;;;;;;;;;-140.72;100.00;54103.81;5070421;28;19927;-70
2023/10/18 10:58:18;;;;;;;;;;;;;;;-140.72;100.00;53604.47;5068698;28;19924;-71
2023/10/18 11:00:59;;;;;;;;;;;;;;;-140.72;100.00;53257.38;5070146;28;20354;-70
2023/10/18 11:03:30;;;;;;;;;;;;;;;-140.72;100.00;53113.28;5067047;28;19920;-70
2023/10/18 11:05:58;;;;;;;;;;;;;;;-140.72;100.00;52825.13;5065727;28;19917;-70
2023/10/18 11:08:23;;;;;;;;;;;;;;;-140.72;100.00;52737.84;5075548;28;20301;-70
2023/10/18 11:10:48;;;;;;;;;;;;;;;-140.72;100.00;52725.69;5074604;28;20015;-70
2023/10/18 11:13:14;;;;;;;;;;;;;;;-140.72;100.00;52703.34;5071785;28;19917;-70
2023/10/18 11:15:42;;;;;;;;;;;;;;;-140.72;100.00;52713.50;5075582;28;20317;-70
2023/10/18 11:18:20;;;;;;;;;;;;;;;-140.72;0.00;52739.88;5059703;28;19921;-70
2023/10/18 11:20:58;;;;;;;;;;;;;;;-140.72;0.00;52764.25;5068428;28;19983;-70
2023/10/18 11:23:26;;;;;;;;;;;;;;;-140.72;0.00;52737.84;5073445;28;19991;-70
2023/10/18 11:25:56;;;;;;;;;;;;;;;-140.72;0.00;52754.09;5090807;28;19917;-70
2023/10/18 11:28:28;;;;;;;;;;;;;;;-140.72;0.00;52754.09;5065917;28;20013;-70
2023/10/18 11:30:56;;;;;;;;;;;;;;;-140.72;0.00;52707.41;5077836;28;20348;-70
2023/10/18 11:33:31;;;;;;;;;;;;;;;-140.72;0.00;52743.94;5067900;28;19927;-70
2023/10/18 11:35:56;;;;;;;;;;;;;;;-140.72;0.00;52715.53;5074413;28;19977;-70
2023/10/18 11:38:22;;;;;;;;;;;;;;;-140.72;0.00;52666.84;5085430;28;19920;-70
2023/10/18 11:40:50;;;;;;;;;;;;;;;-140.72;0.00;52681.03;5077853;28;19916;-70
2023/10/18 11:43:39;;;;;;;;;;;;;;;-140.72;0.00;52693.22;5067432;28;19924;-70
2023/10/18 11:46:08;;;;;;;;;;;;;;;-140.72;0.00;52733.78;5063046;28;19916;-69
2023/10/18 11:48:34;;;;;;;;;;;;;;;-140.72;0.00;52739.88;5084659;28;19924;-69
2023/10/18 11:51:02;;;;;;;;;;;;;;;-140.72;0.00;52715.53;5072311;28;19921;-69
2023/10/18 11:53:27;;;;;;;;;;;;;;;-140.72;0.00;52731.75;5075876;28;19924;-69
2023/10/18 11:55:59;;;;;;;;;;;;;;;-140.72;0.00;52715.53;5074954;28;19916;-68
2023/10/18 11:58:25;;;;;;;;;;;;;;;-140.72;0.00;52739.88;5073947;28;19932;-69
2023/10/18 12:00:56;;;;;;;;;;;;;;;-140.72;0.00;52715.53;5085246;28;19920;-69
2023/10/18 12:03:33;;;;;;;;;;;;;;;-140.72;0.00;52654.66;5058041;28;19966;-69
2023/10/18 12:06:00;;;;;;;;;;;;;;;-140.72;0.00;52642.47;5074669;28;20247;-69
2023/10/18 12:08:26;;;;;;;;;;;;;;;-140.72;0.00;52658.72;5063834;28;20003;-69
2023/10/18 12:10:54;;;;;;;;;;;;;;;-140.72;0.00;52699.31;5076486;28;20258;-69
2023/10/18 12:13:22;;;;;;;;;;;;;;;-140.72;0.00;52721.63;5065601;28;19921;-69
2023/10/18 12:15:47;;;;;;;;;;;;;;;-140.72;0.00;52703.34;5074463;28;20019;-69
2023/10/18 12:18:14;;;;;;;;;;;;;;;-140.72;0.00;52709.44;5071641;28;20393;-69
2023/10/18 12:20:43;;;;;;;;;;;;;;;-140.72;0.00;52689.16;5072997;28;19920;-69
2023/10/18 12:23:13;;;;;;;;;;;;;;;-140.72;0.00;52620.16;5076241;28;20011;-69
2023/10/18 12:25:42;;;;;;;;;;;;;;;-140.72;0.00;52634.38;5075851;28;19927;-70
2023/10/18 12:28:12;;;;;;;;;;;;;;;-140.72;0.00;52652.63;5073207;28;20262;-69
2023/10/18 12:30:40;;;;;;;;;;;;;;;-140.72;0.00;52597.84;5073127;28;19971;-70
2023/10/18 12:33:06;;;;;;;;;;;;;;;-140.72;0.00;52646.53;5060800;28;20107;-69
2023/10/18 12:35:31;;;;;;;;;;;;;;;-140.72;0.00;52601.91;5072730;28;20342;-69
2023/10/18 12:37:57;;;;;;;;;;;;;;;-140.72;0.00;52642.47;5060593;28;19916;-69
2023/10/18 12:40:28;;;;;;;;;;;;;;;-140.72;0.00;52585.66;5067333;28;19920;-69
2023/10/18 12:43:00;;;;;;;;;;;;;;;-140.72;0.00;52589.72;5073582;28;20012;-69
2023/10/18 12:45:26;;;;;;;;;;;;;;;-140.72;0.00;52605.94;5071905;28;20011;-69
2023/10/18 12:47:51;;;;;;;;;;;;;;;-140.72;0.00;52589.72;5072886;28;19982;-69
2023/10/18 12:50:21;;;;;;;;;;;;;;;-140.72;0.00;52583.63;5067599;28;19920;-69
2023/10/18 12:52:52;;;;;;;;;;;;;;;-140.72;0.00;52605.94;5068575;28;19928;-69
2023/10/18 12:55:36;;;;;;;;;;;;;;;-140.72;0.00;52595.81;5072392;28;19920;-69
2023/10/18 12:58:01;;;;;;;;;;;;;;;-140.72;0.00;52622.19;5073557;28;19916;-69
2023/10/18 13:00:32;;;;;;;;;;;;;;;-140.72;0.00;52646.53;5055768;28;20386;-69
2023/10/18 13:05:40;;;;;;;;;;;;;;;-140.72;0.00;52595.81;5069154;28;19936;-69
2023/10/18 13:08:15;;;;;;;;;;;;;;;-140.72;0.00;52605.94;5068334;28;19962;-71
2023/10/18 13:10:43;;;;;;;;;;;;;;;-140.72;0.00;52589.72;5081597;28;19928;-68